sensor_id;sensor_type;location;lat;lon;timestamp;P1;durP1;ratioP1;P2;durP2;ratioP2
12925;SDS011;6529;50.566;9.774;2023-04-16T00:00:42;21.13;;;13.20;;
12925;SDS011;6529;50.566;9.774;2023-04-16T00:03:08;22.73;;;14.13;;
12925;SDS011;6529;50.566;9.774;2023-04-16T00:05:33;22.23;;;15.00;;
12925;SDS011;6529;50.566;9.774;2023-04-16T00:07:59;21.90;;;14.53;;
12925;SDS011;6529;50.566;9.774;2023-04-16T00:10:25;20.87;;;14.37;;
12925;SDS011;6529;50.566;9.774;2023-04-16T00:12:50;23.50;;;15.10;;
12925;SDS011;6529;50.566;9.774;2023-04-16T00:15:16;22.90;;;15.40;;
12925;SDS011;6529;50.566;9.774;2023-04-16T00:17:41;21.87;;;15.50;;
12925;SDS011;6529;50.566;9.774;2023-04-16T00:20:07;25.33;;;16.70;;
12925;SDS011;6529;50.566;9.774;2023-04-16T00:22:33;23.60;;;16.17;;
12925;SDS011;6529;50.566;9.774;2023-04-16T00:24:58;24.93;;;17.30;;
12925;SDS011;6529;50.566;9.774;2023-04-16T00:27:24;24.23;;;16.00;;
12925;SDS011;6529;50.566;9.774;2023-04-16T00:29:49;25.80;;;17.20;;
12925;SDS011;6529;50.566;9.774;2023-04-16T00:32:15;26.13;;;17.90;;
12925;SDS011;6529;50.566;9.774;2023-04-16T00:34:41;25.63;;;16.80;;
12925;SDS011;6529;50.566;9.774;2023-04-16T00:37:06;25.53;;;16.30;;
12925;SDS011;6529;50.566;9.774;2023-04-16T00:39:32;29.80;;;18.10;;
12925;SDS011;6529;50.566;9.774;2023-04-16T00:41:57;25.30;;;16.73;;
12925;SDS011;6529;50.566;9.774;2023-04-16T00:44:23;29.40;;;17.37;;
12925;SDS011;6529;50.566;9.774;2023-04-16T00:46:48;26.50;;;17.43;;
12925;SDS011;6529;50.566;9.774;2023-04-16T00:49:14;26.30;;;17.83;;
12925;SDS011;6529;50.566;9.774;2023-04-16T00:51:40;28.33;;;18.10;;
12925;SDS011;6529;50.566;9.774;2023-04-16T00:54:06;27.60;;;17.90;;
12925;SDS011;6529;50.566;9.774;2023-04-16T00:56:31;26.23;;;17.20;;
12925;SDS011;6529;50.566;9.774;2023-04-16T00:58:59;26.57;;;17.10;;
12925;SDS011;6529;50.566;9.774;2023-04-16T01:01:25;26.37;;;17.87;;
12925;SDS011;6529;50.566;9.774;2023-04-16T01:03:50;26.27;;;17.40;;
12925;SDS011;6529;50.566;9.774;2023-04-16T01:06:16;27.07;;;17.23;;
12925;SDS011;6529;50.566;9.774;2023-04-16T01:08:42;27.40;;;17.30;;
12925;SDS011;6529;50.566;9.774;2023-04-16T01:11:12;25.93;;;17.73;;
12925;SDS011;6529;50.566;9.774;2023-04-16T01:13:39;27.23;;;16.90;;
12925;SDS011;6529;50.566;9.774;2023-04-16T01:16:08;26.77;;;17.27;;
12925;SDS011;6529;50.566;9.774;2023-04-16T01:18:35;27.43;;;17.57;;
12925;SDS011;6529;50.566;9.774;2023-04-16T01:21:01;26.13;;;17.63;;
12925;SDS011;6529;50.566;9.774;2023-04-16T01:23:27;25.80;;;17.63;;
12925;SDS011;6529;50.566;9.774;2023-04-16T01:25:53;25.13;;;17.20;;
12925;SDS011;6529;50.566;9.774;2023-04-16T01:28:19;25.97;;;17.57;;
12925;SDS011;6529;50.566;9.774;2023-04-16T01:30:45;26.17;;;17.87;;
12925;SDS011;6529;50.566;9.774;2023-04-16T01:33:11;25.97;;;17.07;;
12925;SDS011;6529;50.566;9.774;2023-04-16T01:35:37;26.07;;;17.77;;
12925;SDS011;6529;50.566;9.774;2023-04-16T01:38:05;27.23;;;18.10;;
12925;SDS011;6529;50.566;9.774;2023-04-16T01:40:31;25.83;;;18.03;;
12925;SDS011;6529;50.566;9.774;2023-04-16T01:42:57;28.23;;;17.80;;
12925;SDS011;6529;50.566;9.774;2023-04-16T01:45:24;27.50;;;17.63;;
12925;SDS011;6529;50.566;9.774;2023-04-16T01:47:49;28.70;;;18.53;;
12925;SDS011;6529;50.566;9.774;2023-04-16T01:50:16;28.37;;;18.77;;
12925;SDS011;6529;50.566;9.774;2023-04-16T01:52:43;29.07;;;17.97;;
12925;SDS011;6529;50.566;9.774;2023-04-16T01:55:08;28.87;;;18.87;;
12925;SDS011;6529;50.566;9.774;2023-04-16T01:57:34;26.73;;;17.83;;
12925;SDS011;6529;50.566;9.774;2023-04-16T02:00:00;26.30;;;18.30;;
12925;SDS011;6529;50.566;9.774;2023-04-16T02:02:26;26.60;;;18.20;;
12925;SDS011;6529;50.566;9.774;2023-04-16T02:04:53;27.20;;;19.20;;
12925;SDS011;6529;50.566;9.774;2023-04-16T02:07:19;26.23;;;18.07;;
12925;SDS011;6529;50.566;9.774;2023-04-16T02:09:45;28.37;;;18.47;;
12925;SDS011;6529;50.566;9.774;2023-04-16T02:12:10;28.43;;;18.23;;
12925;SDS011;6529;50.566;9.774;2023-04-16T02:14:36;26.13;;;18.90;;
12925;SDS011;6529;50.566;9.774;2023-04-16T02:17:02;29.13;;;19.80;;
12925;SDS011;6529;50.566;9.774;2023-04-16T02:19:28;32.10;;;20.23;;
12925;SDS011;6529;50.566;9.774;2023-04-16T02:21:54;27.43;;;19.67;;
12925;SDS011;6529;50.566;9.774;2023-04-16T02:24:20;28.37;;;19.43;;
12925;SDS011;6529;50.566;9.774;2023-04-16T02:26:45;30.23;;;20.13;;
12925;SDS011;6529;50.566;9.774;2023-04-16T02:29:11;32.17;;;21.20;;
12925;SDS011;6529;50.566;9.774;2023-04-16T02:31:37;30.70;;;20.00;;
12925;SDS011;6529;50.566;9.774;2023-04-16T02:34:03;34.33;;;21.50;;
12925;SDS011;6529;50.566;9.774;2023-04-16T02:36:30;30.73;;;20.53;;
12925;SDS011;6529;50.566;9.774;2023-04-16T02:38:56;35.00;;;22.20;;
12925;SDS011;6529;50.566;9.774;2023-04-16T02:41:23;30.63;;;20.70;;
12925;SDS011;6529;50.566;9.774;2023-04-16T02:43:48;31.63;;;21.40;;
12925;SDS011;6529;50.566;9.774;2023-04-16T02:46:14;31.97;;;21.00;;
12925;SDS011;6529;50.566;9.774;2023-04-16T02:48:39;32.43;;;21.00;;
12925;SDS011;6529;50.566;9.774;2023-04-16T02:51:05;29.60;;;21.17;;
12925;SDS011;6529;50.566;9.774;2023-04-16T02:53:30;30.23;;;20.13;;
12925;SDS011;6529;50.566;9.774;2023-04-16T02:55:56;30.30;;;20.80;;
12925;SDS011;6529;50.566;9.774;2023-04-16T02:58:22;30.57;;;20.93;;
12925;SDS011;6529;50.566;9.774;2023-04-16T03:00:50;34.60;;;21.80;;
12925;SDS011;6529;50.566;9.774;2023-04-16T03:03:16;31.07;;;21.13;;
12925;SDS011;6529;50.566;9.774;2023-04-16T03:05:42;34.40;;;21.93;;
12925;SDS011;6529;50.566;9.774;2023-04-16T03:08:07;33.63;;;21.93;;
12925;SDS011;6529;50.566;9.774;2023-04-16T03:10:33;33.60;;;22.60;;
12925;SDS011;6529;50.566;9.774;2023-04-16T03:13:00;29.33;;;20.60;;
12925;SDS011;6529;50.566;9.774;2023-04-16T03:15:26;28.83;;;20.30;;
12925;SDS011;6529;50.566;9.774;2023-04-16T03:17:52;35.97;;;21.47;;
12925;SDS011;6529;50.566;9.774;2023-04-16T03:20:18;34.87;;;21.37;;
12925;SDS011;6529;50.566;9.774;2023-04-16T03:22:44;31.40;;;20.80;;
12925;SDS011;6529;50.566;9.774;2023-04-16T03:25:10;31.70;;;21.47;;
12925;SDS011;6529;50.566;9.774;2023-04-16T03:27:36;31.47;;;20.87;;
12925;SDS011;6529;50.566;9.774;2023-04-16T03:30:04;33.67;;;21.33;;
12925;SDS011;6529;50.566;9.774;2023-04-16T03:32:30;31.30;;;21.77;;
12925;SDS011;6529;50.566;9.774;2023-04-16T03:34:56;32.30;;;22.00;;
12925;SDS011;6529;50.566;9.774;2023-04-16T03:37:21;33.57;;;21.67;;
12925;SDS011;6529;50.566;9.774;2023-04-16T03:39:47;31.90;;;21.87;;
12925;SDS011;6529;50.566;9.774;2023-04-16T03:42:13;30.93;;;21.33;;
12925;SDS011;6529;50.566;9.774;2023-04-16T03:44:38;30.47;;;21.27;;
12925;SDS011;6529;50.566;9.774;2023-04-16T03:47:04;32.97;;;21.30;;
12925;SDS011;6529;50.566;9.774;2023-04-16T03:49:30;31.67;;;21.20;;
12925;SDS011;6529;50.566;9.774;2023-04-16T03:51:55;33.23;;;21.57;;
12925;SDS011;6529;50.566;9.774;2023-04-16T03:54:21;30.97;;;21.63;;
12925;SDS011;6529;50.566;9.774;2023-04-16T03:56:46;32.27;;;21.37;;
12925;SDS011;6529;50.566;9.774;2023-04-16T03:59:12;31.93;;;21.37;;
12925;SDS011;6529;50.566;9.774;2023-04-16T04:01:37;33.03;;;21.20;;
12925;SDS011;6529;50.566;9.774;2023-04-16T04:04:03;31.73;;;21.27;;
12925;SDS011;6529;50.566;9.774;2023-04-16T04:06:28;34.60;;;21.20;;
12925;SDS011;6529;50.566;9.774;2023-04-16T04:08:54;33.07;;;21.07;;
12925;SDS011;6529;50.566;9.774;2023-04-16T04:11:20;29.73;;;20.17;;
12925;SDS011;6529;50.566;9.774;2023-04-16T04:13:46;31.57;;;21.57;;
12925;SDS011;6529;50.566;9.774;2023-04-16T04:16:11;30.40;;;20.30;;
12925;SDS011;6529;50.566;9.774;2023-04-16T04:18:37;33.17;;;21.33;;
12925;SDS011;6529;50.566;9.774;2023-04-16T04:21:06;31.37;;;19.53;;
12925;SDS011;6529;50.566;9.774;2023-04-16T04:23:32;27.97;;;19.33;;
12925;SDS011;6529;50.566;9.774;2023-04-16T04:25:58;29.63;;;19.97;;
12925;SDS011;6529;50.566;9.774;2023-04-16T04:28:27;30.30;;;19.47;;
12925;SDS011;6529;50.566;9.774;2023-04-16T04:30:56;26.17;;;18.87;;
12925;SDS011;6529;50.566;9.774;2023-04-16T04:33:23;27.20;;;19.07;;
12925;SDS011;6529;50.566;9.774;2023-04-16T04:35:52;27.03;;;19.17;;
12925;SDS011;6529;50.566;9.774;2023-04-16T04:38:18;29.47;;;19.97;;
12925;SDS011;6529;50.566;9.774;2023-04-16T04:40:46;25.30;;;18.03;;
12925;SDS011;6529;50.566;9.774;2023-04-16T04:43:12;25.73;;;18.07;;
12925;SDS011;6529;50.566;9.774;2023-04-16T04:45:37;24.87;;;17.97;;
12925;SDS011;6529;50.566;9.774;2023-04-16T04:48:03;25.40;;;17.93;;
12925;SDS011;6529;50.566;9.774;2023-04-16T04:50:29;26.73;;;17.77;;
12925;SDS011;6529;50.566;9.774;2023-04-16T04:52:55;23.90;;;17.07;;
12925;SDS011;6529;50.566;9.774;2023-04-16T04:55:20;21.80;;;16.07;;
12925;SDS011;6529;50.566;9.774;2023-04-16T04:57:47;25.60;;;15.80;;
12925;SDS011;6529;50.566;9.774;2023-04-16T05:00:13;17.93;;;13.33;;
12925;SDS011;6529;50.566;9.774;2023-04-16T05:02:38;19.57;;;14.30;;
12925;SDS011;6529;50.566;9.774;2023-04-16T05:05:04;19.07;;;14.23;;
12925;SDS011;6529;50.566;9.774;2023-04-16T05:07:30;21.30;;;14.83;;
12925;SDS011;6529;50.566;9.774;2023-04-16T05:09:56;20.27;;;14.53;;
12925;SDS011;6529;50.566;9.774;2023-04-16T05:12:21;18.77;;;13.77;;
12925;SDS011;6529;50.566;9.774;2023-04-16T05:14:47;19.33;;;14.13;;
12925;SDS011;6529;50.566;9.774;2023-04-16T05:17:12;19.03;;;14.33;;
12925;SDS011;6529;50.566;9.774;2023-04-16T05:19:38;17.63;;;13.43;;
12925;SDS011;6529;50.566;9.774;2023-04-16T05:22:03;16.70;;;12.53;;
12925;SDS011;6529;50.566;9.774;2023-04-16T05:24:29;16.40;;;12.23;;
12925;SDS011;6529;50.566;9.774;2023-04-16T05:26:55;16.30;;;12.13;;
12925;SDS011;6529;50.566;9.774;2023-04-16T05:29:21;18.30;;;13.03;;
12925;SDS011;6529;50.566;9.774;2023-04-16T05:31:46;15.97;;;12.60;;
12925;SDS011;6529;50.566;9.774;2023-04-16T05:34:12;17.90;;;12.43;;
12925;SDS011;6529;50.566;9.774;2023-04-16T05:36:37;16.93;;;12.33;;
12925;SDS011;6529;50.566;9.774;2023-04-16T05:39:03;14.90;;;11.80;;
12925;SDS011;6529;50.566;9.774;2023-04-16T05:41:29;15.10;;;11.70;;
12925;SDS011;6529;50.566;9.774;2023-04-16T05:43:54;15.50;;;11.20;;
12925;SDS011;6529;50.566;9.774;2023-04-16T05:46:20;15.03;;;10.63;;
12925;SDS011;6529;50.566;9.774;2023-04-16T05:48:45;14.33;;;10.97;;
12925;SDS011;6529;50.566;9.774;2023-04-16T05:51:11;12.97;;;10.03;;
12925;SDS011;6529;50.566;9.774;2023-04-16T05:53:36;14.50;;;10.63;;
12925;SDS011;6529;50.566;9.774;2023-04-16T05:56:02;13.43;;;10.30;;
12925;SDS011;6529;50.566;9.774;2023-04-16T05:58:28;13.00;;;9.80;;
12925;SDS011;6529;50.566;9.774;2023-04-16T06:00:53;14.40;;;10.10;;
12925;SDS011;6529;50.566;9.774;2023-04-16T06:03:19;12.47;;;9.47;;
12925;SDS011;6529;50.566;9.774;2023-04-16T06:05:44;12.70;;;9.43;;
12925;SDS011;6529;50.566;9.774;2023-04-16T06:08:10;10.93;;;8.87;;
12925;SDS011;6529;50.566;9.774;2023-04-16T06:10:36;12.77;;;9.30;;
12925;SDS011;6529;50.566;9.774;2023-04-16T06:13:01;12.30;;;8.93;;
12925;SDS011;6529;50.566;9.774;2023-04-16T06:15:27;11.23;;;8.73;;
12925;SDS011;6529;50.566;9.774;2023-04-16T06:17:53;10.57;;;8.83;;
12925;SDS011;6529;50.566;9.774;2023-04-16T06:20:19;10.00;;;7.90;;
12925;SDS011;6529;50.566;9.774;2023-04-16T06:22:45;9.77;;;8.13;;
12925;SDS011;6529;50.566;9.774;2023-04-16T06:25:11;10.47;;;8.63;;
12925;SDS011;6529;50.566;9.774;2023-04-16T06:27:36;10.37;;;8.37;;
12925;SDS011;6529;50.566;9.774;2023-04-16T06:30:02;11.10;;;9.13;;
12925;SDS011;6529;50.566;9.774;2023-04-16T06:32:28;10.33;;;8.47;;
12925;SDS011;6529;50.566;9.774;2023-04-16T06:34:54;12.80;;;8.80;;
12925;SDS011;6529;50.566;9.774;2023-04-16T06:37:22;10.83;;;8.53;;
12925;SDS011;6529;50.566;9.774;2023-04-16T06:39:48;11.07;;;8.30;;
12925;SDS011;6529;50.566;9.774;2023-04-16T06:42:13;10.57;;;8.70;;
12925;SDS011;6529;50.566;9.774;2023-04-16T06:44:39;9.97;;;8.17;;
12925;SDS011;6529;50.566;9.774;2023-04-16T06:47:04;10.53;;;8.50;;
12925;SDS011;6529;50.566;9.774;2023-04-16T06:49:30;9.93;;;8.43;;
12925;SDS011;6529;50.566;9.774;2023-04-16T06:51:56;10.10;;;8.33;;
12925;SDS011;6529;50.566;9.774;2023-04-16T06:54:21;9.93;;;8.30;;
12925;SDS011;6529;50.566;9.774;2023-04-16T06:56:47;10.90;;;8.93;;
12925;SDS011;6529;50.566;9.774;2023-04-16T06:59:13;9.90;;;8.03;;
12925;SDS011;6529;50.566;9.774;2023-04-16T07:01:38;10.07;;;7.73;;
12925;SDS011;6529;50.566;9.774;2023-04-16T07:04:05;9.77;;;7.77;;
12925;SDS011;6529;50.566;9.774;2023-04-16T07:06:30;8.60;;;7.50;;
12925;SDS011;6529;50.566;9.774;2023-04-16T07:08:56;10.57;;;8.67;;
12925;SDS011;6529;50.566;9.774;2023-04-16T07:11:21;21.03;;;14.97;;
12925;SDS011;6529;50.566;9.774;2023-04-16T07:13:47;15.07;;;11.47;;
12925;SDS011;6529;50.566;9.774;2023-04-16T07:16:14;11.23;;;7.97;;
12925;SDS011;6529;50.566;9.774;2023-04-16T07:18:41;31.27;;;22.40;;
12925;SDS011;6529;50.566;9.774;2023-04-16T07:21:07;8.73;;;7.37;;
12925;SDS011;6529;50.566;9.774;2023-04-16T07:23:32;8.30;;;7.00;;
12925;SDS011;6529;50.566;9.774;2023-04-16T07:25:58;8.73;;;7.10;;
12925;SDS011;6529;50.566;9.774;2023-04-16T07:28:23;9.23;;;7.33;;
12925;SDS011;6529;50.566;9.774;2023-04-16T07:30:49;9.23;;;7.63;;
12925;SDS011;6529;50.566;9.774;2023-04-16T07:33:15;9.10;;;7.17;;
12925;SDS011;6529;50.566;9.774;2023-04-16T07:35:40;9.57;;;7.30;;
12925;SDS011;6529;50.566;9.774;2023-04-16T07:38:06;15.53;;;10.97;;
12925;SDS011;6529;50.566;9.774;2023-04-16T07:40:32;8.03;;;7.10;;
12925;SDS011;6529;50.566;9.774;2023-04-16T07:42:57;8.47;;;7.10;;
12925;SDS011;6529;50.566;9.774;2023-04-16T07:45:23;9.57;;;7.50;;
12925;SDS011;6529;50.566;9.774;2023-04-16T07:47:48;16.30;;;11.90;;
12925;SDS011;6529;50.566;9.774;2023-04-16T07:50:14;9.40;;;7.47;;
12925;SDS011;6529;50.566;9.774;2023-04-16T07:52:40;14.60;;;10.87;;
12925;SDS011;6529;50.566;9.774;2023-04-16T07:55:07;12.63;;;9.93;;
12925;SDS011;6529;50.566;9.774;2023-04-16T07:57:33;10.63;;;8.20;;
12925;SDS011;6529;50.566;9.774;2023-04-16T07:59:59;12.63;;;10.73;;
12925;SDS011;6529;50.566;9.774;2023-04-16T08:02:26;9.53;;;8.30;;
12925;SDS011;6529;50.566;9.774;2023-04-16T08:04:51;10.93;;;8.77;;
12925;SDS011;6529;50.566;9.774;2023-04-16T08:07:17;10.90;;;8.87;;
12925;SDS011;6529;50.566;9.774;2023-04-16T08:09:52;12.03;;;9.77;;
12925;SDS011;6529;50.566;9.774;2023-04-16T08:12:18;10.63;;;8.63;;
12925;SDS011;6529;50.566;9.774;2023-04-16T08:14:45;11.67;;;8.77;;
12925;SDS011;6529;50.566;9.774;2023-04-16T08:17:11;11.83;;;8.80;;
12925;SDS011;6529;50.566;9.774;2023-04-16T08:19:37;13.17;;;9.53;;
12925;SDS011;6529;50.566;9.774;2023-04-16T08:22:03;14.37;;;10.20;;
12925;SDS011;6529;50.566;9.774;2023-04-16T08:24:28;12.13;;;10.20;;
12925;SDS011;6529;50.566;9.774;2023-04-16T08:26:54;14.03;;;10.17;;
12925;SDS011;6529;50.566;9.774;2023-04-16T08:29:20;11.93;;;10.03;;
12925;SDS011;6529;50.566;9.774;2023-04-16T08:31:45;13.43;;;10.80;;
12925;SDS011;6529;50.566;9.774;2023-04-16T08:34:12;13.27;;;11.27;;
12925;SDS011;6529;50.566;9.774;2023-04-16T08:36:38;13.53;;;11.03;;
12925;SDS011;6529;50.566;9.774;2023-04-16T08:39:04;12.77;;;10.57;;
12925;SDS011;6529;50.566;9.774;2023-04-16T08:41:31;13.00;;;10.30;;
12925;SDS011;6529;50.566;9.774;2023-04-16T08:43:59;13.30;;;10.53;;
12925;SDS011;6529;50.566;9.774;2023-04-16T08:46:26;13.70;;;11.20;;
12925;SDS011;6529;50.566;9.774;2023-04-16T08:48:53;13.57;;;10.57;;
12925;SDS011;6529;50.566;9.774;2023-04-16T08:51:21;13.63;;;11.13;;
12925;SDS011;6529;50.566;9.774;2023-04-16T08:53:49;39.10;;;28.03;;
12925;SDS011;6529;50.566;9.774;2023-04-16T08:56:18;22.90;;;16.47;;
12925;SDS011;6529;50.566;9.774;2023-04-16T08:58:46;12.43;;;9.97;;
12925;SDS011;6529;50.566;9.774;2023-04-16T09:01:14;13.83;;;10.70;;
12925;SDS011;6529;50.566;9.774;2023-04-16T09:03:41;16.13;;;12.23;;
12925;SDS011;6529;50.566;9.774;2023-04-16T09:06:12;13.70;;;11.47;;
12925;SDS011;6529;50.566;9.774;2023-04-16T09:08:39;14.80;;;11.60;;
12925;SDS011;6529;50.566;9.774;2023-04-16T09:11:05;13.93;;;11.43;;
12925;SDS011;6529;50.566;9.774;2023-04-16T09:13:31;16.70;;;11.87;;
12925;SDS011;6529;50.566;9.774;2023-04-16T09:15:57;15.47;;;11.27;;
12925;SDS011;6529;50.566;9.774;2023-04-16T09:18:23;14.90;;;11.77;;
12925;SDS011;6529;50.566;9.774;2023-04-16T09:20:50;14.40;;;11.67;;
12925;SDS011;6529;50.566;9.774;2023-04-16T09:23:16;14.00;;;11.33;;
12925;SDS011;6529;50.566;9.774;2023-04-16T09:25:42;16.33;;;10.97;;
12925;SDS011;6529;50.566;9.774;2023-04-16T09:28:08;14.63;;;10.50;;
12925;SDS011;6529;50.566;9.774;2023-04-16T09:30:34;13.20;;;10.70;;
12925;SDS011;6529;50.566;9.774;2023-04-16T09:33:11;13.23;;;10.80;;
12925;SDS011;6529;50.566;9.774;2023-04-16T09:35:44;12.87;;;10.53;;
12925;SDS011;6529;50.566;9.774;2023-04-16T09:38:11;13.23;;;10.77;;
12925;SDS011;6529;50.566;9.774;2023-04-16T09:40:36;13.70;;;11.07;;
12925;SDS011;6529;50.566;9.774;2023-04-16T09:45:51;31.63;;;22.67;;
12925;SDS011;6529;50.566;9.774;2023-04-16T09:48:28;14.00;;;11.03;;
12925;SDS011;6529;50.566;9.774;2023-04-16T09:50:54;15.00;;;11.07;;
12925;SDS011;6529;50.566;9.774;2023-04-16T09:53:27;16.93;;;13.67;;
12925;SDS011;6529;50.566;9.774;2023-04-16T09:56:01;14.97;;;11.07;;
12925;SDS011;6529;50.566;9.774;2023-04-16T09:58:28;14.57;;;11.13;;
12925;SDS011;6529;50.566;9.774;2023-04-16T10:01:16;14.90;;;11.90;;
12925;SDS011;6529;50.566;9.774;2023-04-16T10:03:41;15.63;;;11.57;;
12925;SDS011;6529;50.566;9.774;2023-04-16T10:06:14;16.20;;;12.40;;
12925;SDS011;6529;50.566;9.774;2023-04-16T10:08:45;16.17;;;12.67;;
12925;SDS011;6529;50.566;9.774;2023-04-16T10:11:15;16.60;;;11.93;;
12925;SDS011;6529;50.566;9.774;2023-04-16T10:13:42;14.20;;;11.53;;
12925;SDS011;6529;50.566;9.774;2023-04-16T10:16:08;15.07;;;11.17;;
12925;SDS011;6529;50.566;9.774;2023-04-16T10:18:37;23.93;;;17.57;;
12925;SDS011;6529;50.566;9.774;2023-04-16T10:21:05;14.07;;;10.77;;
12925;SDS011;6529;50.566;9.774;2023-04-16T10:23:32;13.07;;;10.33;;
12925;SDS011;6529;50.566;9.774;2023-04-16T10:25:59;10.77;;;9.20;;
12925;SDS011;6529;50.566;9.774;2023-04-16T10:28:25;12.73;;;9.23;;
12925;SDS011;6529;50.566;9.774;2023-04-16T10:30:53;12.53;;;9.40;;
12925;SDS011;6529;50.566;9.774;2023-04-16T10:33:21;12.40;;;9.93;;
12925;SDS011;6529;50.566;9.774;2023-04-16T10:35:52;12.73;;;9.97;;
12925;SDS011;6529;50.566;9.774;2023-04-16T10:38:44;12.37;;;9.40;;
12925;SDS011;6529;50.566;9.774;2023-04-16T10:41:11;11.67;;;9.10;;
12925;SDS011;6529;50.566;9.774;2023-04-16T10:43:38;12.37;;;9.63;;
12925;SDS011;6529;50.566;9.774;2023-04-16T10:49:00;14.73;;;11.57;;
12925;SDS011;6529;50.566;9.774;2023-04-16T10:56:36;14.77;;;11.23;;
12925;SDS011;6529;50.566;9.774;2023-04-16T10:59:05;12.83;;;10.63;;
12925;SDS011;6529;50.566;9.774;2023-04-16T11:01:40;13.53;;;10.67;;
12925;SDS011;6529;50.566;9.774;2023-04-16T11:12:17;14.43;;;12.53;;
12925;SDS011;6529;50.566;9.774;2023-04-16T11:14:54;13.70;;;10.97;;
12925;SDS011;6529;50.566;9.774;2023-04-16T11:17:22;12.50;;;10.53;;
12925;SDS011;6529;50.566;9.774;2023-04-16T11:19:53;14.17;;;10.80;;
12925;SDS011;6529;50.566;9.774;2023-04-16T11:22:19;14.50;;;11.63;;
12925;SDS011;6529;50.566;9.774;2023-04-16T11:24:46;12.97;;;10.37;;
12925;SDS011;6529;50.566;9.774;2023-04-16T11:27:18;14.10;;;10.53;;
12925;SDS011;6529;50.566;9.774;2023-04-16T11:29:44;12.90;;;10.10;;
12925;SDS011;6529;50.566;9.774;2023-04-16T11:32:10;12.13;;;10.17;;
12925;SDS011;6529;50.566;9.774;2023-04-16T11:34:46;14.83;;;11.03;;
12925;SDS011;6529;50.566;9.774;2023-04-16T11:37:11;12.73;;;10.23;;
12925;SDS011;6529;50.566;9.774;2023-04-16T11:39:50;14.00;;;11.03;;
12925;SDS011;6529;50.566;9.774;2023-04-16T11:42:20;15.00;;;11.23;;
12925;SDS011;6529;50.566;9.774;2023-04-16T11:44:50;13.83;;;11.80;;
12925;SDS011;6529;50.566;9.774;2023-04-16T11:47:17;14.20;;;11.20;;
12925;SDS011;6529;50.566;9.774;2023-04-16T11:49:42;13.73;;;10.43;;
12925;SDS011;6529;50.566;9.774;2023-04-16T11:52:08;12.50;;;9.43;;
12925;SDS011;6529;50.566;9.774;2023-04-16T11:54:33;12.90;;;9.70;;
12925;SDS011;6529;50.566;9.774;2023-04-16T11:57:00;11.83;;;9.33;;
12925;SDS011;6529;50.566;9.774;2023-04-16T11:59:28;12.53;;;8.60;;
12925;SDS011;6529;50.566;9.774;2023-04-16T12:01:55;11.07;;;9.43;;
12925;SDS011;6529;50.566;9.774;2023-04-16T12:04:21;12.47;;;9.90;;
12925;SDS011;6529;50.566;9.774;2023-04-16T12:07:03;10.83;;;8.37;;
12925;SDS011;6529;50.566;9.774;2023-04-16T12:09:28;17.67;;;14.90;;
12925;SDS011;6529;50.566;9.774;2023-04-16T12:11:54;14.30;;;12.30;;
12925;SDS011;6529;50.566;9.774;2023-04-16T12:14:21;9.13;;;7.67;;
12925;SDS011;6529;50.566;9.774;2023-04-16T12:16:47;10.93;;;8.60;;
12925;SDS011;6529;50.566;9.774;2023-04-16T12:19:13;10.80;;;8.90;;
12925;SDS011;6529;50.566;9.774;2023-04-16T12:21:39;9.67;;;8.10;;
12925;SDS011;6529;50.566;9.774;2023-04-16T12:24:10;12.27;;;9.80;;
12925;SDS011;6529;50.566;9.774;2023-04-16T12:26:47;14.30;;;12.07;;
12925;SDS011;6529;50.566;9.774;2023-04-16T12:29:21;15.20;;;12.23;;
12925;SDS011;6529;50.566;9.774;2023-04-16T12:31:48;9.73;;;7.67;;
12925;SDS011;6529;50.566;9.774;2023-04-16T12:34:15;9.07;;;7.60;;
12925;SDS011;6529;50.566;9.774;2023-04-16T12:36:41;9.57;;;7.60;;
12925;SDS011;6529;50.566;9.774;2023-04-16T12:39:08;10.27;;;7.70;;
12925;SDS011;6529;50.566;9.774;2023-04-16T12:41:38;8.53;;;7.00;;
12925;SDS011;6529;50.566;9.774;2023-04-16T12:44:06;10.00;;;8.90;;
12925;SDS011;6529;50.566;9.774;2023-04-16T12:46:39;8.60;;;6.97;;
12925;SDS011;6529;50.566;9.774;2023-04-16T12:49:06;8.53;;;7.17;;
12925;SDS011;6529;50.566;9.774;2023-04-16T12:51:33;9.70;;;8.03;;
12925;SDS011;6529;50.566;9.774;2023-04-16T12:53:59;9.40;;;7.13;;
12925;SDS011;6529;50.566;9.774;2023-04-16T12:56:25;9.03;;;6.93;;
12925;SDS011;6529;50.566;9.774;2023-04-16T12:58:51;7.70;;;6.27;;
12925;SDS011;6529;50.566;9.774;2023-04-16T13:01:17;7.50;;;5.97;;
12925;SDS011;6529;50.566;9.774;2023-04-16T13:03:44;7.90;;;6.37;;
12925;SDS011;6529;50.566;9.774;2023-04-16T13:06:11;7.33;;;6.30;;
12925;SDS011;6529;50.566;9.774;2023-04-16T13:08:37;7.93;;;6.20;;
12925;SDS011;6529;50.566;9.774;2023-04-16T13:11:03;6.87;;;5.27;;
12925;SDS011;6529;50.566;9.774;2023-04-16T13:13:30;23.37;;;20.10;;
12925;SDS011;6529;50.566;9.774;2023-04-16T13:15:55;7.40;;;6.17;;
12925;SDS011;6529;50.566;9.774;2023-04-16T13:18:21;6.57;;;5.70;;
12925;SDS011;6529;50.566;9.774;2023-04-16T13:20:47;7.27;;;5.60;;
12925;SDS011;6529;50.566;9.774;2023-04-16T13:23:13;7.00;;;5.50;;
12925;SDS011;6529;50.566;9.774;2023-04-16T13:25:38;7.13;;;5.43;;
12925;SDS011;6529;50.566;9.774;2023-04-16T13:28:04;6.50;;;5.43;;
12925;SDS011;6529;50.566;9.774;2023-04-16T13:30:30;6.20;;;5.10;;
12925;SDS011;6529;50.566;9.774;2023-04-16T13:32:57;7.07;;;5.67;;
12925;SDS011;6529;50.566;9.774;2023-04-16T13:35:23;6.33;;;5.73;;
12925;SDS011;6529;50.566;9.774;2023-04-16T13:37:48;8.80;;;7.90;;
12925;SDS011;6529;50.566;9.774;2023-04-16T13:40:14;6.73;;;6.03;;
12925;SDS011;6529;50.566;9.774;2023-04-16T13:42:40;7.53;;;5.60;;
12925;SDS011;6529;50.566;9.774;2023-04-16T13:45:06;14.97;;;9.73;;
12925;SDS011;6529;50.566;9.774;2023-04-16T13:47:33;8.90;;;6.03;;
12925;SDS011;6529;50.566;9.774;2023-04-16T13:49:59;35.70;;;19.13;;
12925;SDS011;6529;50.566;9.774;2023-04-16T13:52:24;7.97;;;6.17;;
12925;SDS011;6529;50.566;9.774;2023-04-16T13:54:50;10.10;;;7.50;;
12925;SDS011;6529;50.566;9.774;2023-04-16T13:57:16;20.93;;;13.43;;
12925;SDS011;6529;50.566;9.774;2023-04-16T13:59:42;9.20;;;6.83;;
12925;SDS011;6529;50.566;9.774;2023-04-16T14:02:08;16.80;;;10.97;;
12925;SDS011;6529;50.566;9.774;2023-04-16T14:04:34;7.30;;;5.43;;
12925;SDS011;6529;50.566;9.774;2023-04-16T14:07:00;7.07;;;5.57;;
12925;SDS011;6529;50.566;9.774;2023-04-16T14:09:26;7.77;;;5.93;;
12925;SDS011;6529;50.566;9.774;2023-04-16T14:11:52;9.07;;;7.50;;
12925;SDS011;6529;50.566;9.774;2023-04-16T14:14:17;9.43;;;6.73;;
12925;SDS011;6529;50.566;9.774;2023-04-16T14:16:43;35.50;;;23.80;;
12925;SDS011;6529;50.566;9.774;2023-04-16T14:19:08;8.70;;;6.53;;
12925;SDS011;6529;50.566;9.774;2023-04-16T14:21:34;12.13;;;9.07;;
12925;SDS011;6529;50.566;9.774;2023-04-16T14:24:00;10.57;;;7.97;;
12925;SDS011;6529;50.566;9.774;2023-04-16T14:26:26;8.57;;;6.93;;
12925;SDS011;6529;50.566;9.774;2023-04-16T14:28:52;16.40;;;11.30;;
12925;SDS011;6529;50.566;9.774;2023-04-16T14:31:17;9.17;;;6.97;;
12925;SDS011;6529;50.566;9.774;2023-04-16T14:33:43;21.37;;;14.03;;
12925;SDS011;6529;50.566;9.774;2023-04-16T14:36:09;8.07;;;6.77;;
12925;SDS011;6529;50.566;9.774;2023-04-16T14:38:35;18.40;;;11.10;;
12925;SDS011;6529;50.566;9.774;2023-04-16T14:41:01;11.87;;;8.33;;
12925;SDS011;6529;50.566;9.774;2023-04-16T14:43:26;10.30;;;7.70;;
12925;SDS011;6529;50.566;9.774;2023-04-16T14:45:52;11.50;;;7.63;;
12925;SDS011;6529;50.566;9.774;2023-04-16T14:48:18;14.87;;;11.07;;
12925;SDS011;6529;50.566;9.774;2023-04-16T14:50:43;9.37;;;7.50;;
12925;SDS011;6529;50.566;9.774;2023-04-16T14:53:09;10.23;;;7.80;;
12925;SDS011;6529;50.566;9.774;2023-04-16T14:55:35;32.20;;;19.73;;